Home > Products > Valid Products > TAF

000
FTUS43 KPAH 281120
TAFCGI
TAF
KCGI 281120Z 2812/2912 03010KT P6SM SCT100 BKN250
     FM281500 03012G18KT P6SM SCT050 BKN100
     FM290100 02003KT P6SM BKN250=



000
FTUS43 KPAH 281120
TAFPAH
TAF
KPAH 281120Z 2812/2912 03008KT P6SM SCT100 BKN250
     FM281500 04012G18KT P6SM SCT050 BKN100
     FM290100 02003KT P6SM BKN250=



000
FTUS43 KPAH 281120
TAFEVV
TAF
KEVV 281120Z 2812/2912 03008KT P6SM SCT250
     FM281500 04010KT P6SM SCT100 BKN250
     FM290100 02003KT P6SM SCT250=



000
FTUS43 KPAH 281120
TAFCGI
TAF
KCGI 281120Z 2812/2912 03010KT P6SM SCT100 BKN250
     FM281500 03012G18KT P6SM SCT050 BKN100
     FM290100 02003KT P6SM BKN250=



000
FTUS43 KPAH 281120
TAFPAH
TAF
KPAH 281120Z 2812/2912 03008KT P6SM SCT100 BKN250
     FM281500 04012G18KT P6SM SCT050 BKN100
     FM290100 02003KT P6SM BKN250=



000
FTUS43 KPAH 281120
TAFEVV
TAF
KEVV 281120Z 2812/2912 03008KT P6SM SCT250
     FM281500 04010KT P6SM SCT100 BKN250
     FM290100 02003KT P6SM SCT250=



000
FTUS43 KPAH 280528
TAFEVV
TAF
KEVV 280528Z 2806/2906 02006KT P6SM SCT250
     FM281400 05009KT P6SM FEW050
     FM290100 04003KT P6SM SCT250=



000
FTUS43 KPAH 280528
TAFCGI
TAF
KCGI 280528Z 2806/2906 03007KT P6SM SCT250
     FM281400 04011G17KT P6SM BKN250
     FM290100 03005KT P6SM BKN250=



000
FTUS43 KPAH 280528
TAFPAH
TAF
KPAH 280528Z 2806/2906 02007KT P6SM SCT250
     FM281400 04011G16KT P6SM BKN250
     FM290100 03005KT P6SM BKN250=



000
FTUS43 KPAH 272338
TAFEVV
TAF
KEVV 272338Z 2800/2824 01010KT P6SM SCT250
     FM280200 01007KT P6SM SCT250
     FM281400 05009KT P6SM FEW050 SCT250=



000
FTUS43 KPAH 272338
TAFCGI
TAF
KCGI 272338Z 2800/2824 03008KT P6SM SCT250
     FM281400 04011G17KT P6SM BKN250=



000
FTUS43 KPAH 272338
TAFPAH
TAF
KPAH 272338Z 2800/2824 02008KT P6SM SCT250
     FM281400 04011G16KT P6SM BKN250=



000
FTUS43 KPAH 271725
TAFPAH
TAF
KPAH 271725Z 2718/2818 03011KT P6SM BKN250
     FM272300 02005KT P6SM SCT250
     FM281400 04010KT P6SM BKN250=



000
FTUS43 KPAH 271725
TAFCGI
TAF
KCGI 271725Z 2718/2818 04013KT P6SM BKN250
     FM272300 03007KT P6SM SCT250
     FM281400 04011KT P6SM BKN250=



000
FTUS43 KPAH 271725
TAFEVV
TAF
KEVV 271725Z 2718/2818 02008KT P6SM BKN250
     FM280000 01004KT P6SM SCT250
     FM281400 04009KT P6SM FEW050 SCT250=



000
FTUS43 KPAH 271120
TAFPAH
TAF
KPAH 271120Z 2712/2812 03007KT P6SM BKN300
     FM271600 03010G16KT P6SM BKN300
     FM272330 03007KT P6SM BKN300=



000
FTUS43 KPAH 271120
TAFEVV
TAF
KEVV 271120Z 2712/2812 36007KT P6SM SKC
     FM271630 36009KT P6SM SKC
     FM280100 03007KT P6SM FEW300=



000
FTUS43 KPAH 271120
TAFCGI
TAF
KCGI 271120Z 2712/2812 03007KT P6SM BKN300
     FM271500 03010G17KT P6SM BKN300
     FM272330 03007KT P6SM BKN300=



000
FTUS43 KPAH 270525
TAFPAH
TAF
KPAH 270525Z 2706/2806 02006KT P6SM SKC
     FM271500 03010G18KT P6SM SKC
     FM280000 03007KT P6SM SKC=



000
FTUS43 KPAH 270525
TAFEVV
TAF
KEVV 270525Z 2706/2806 36006KT P6SM SKC
     FM271800 36010G18KT P6SM SKC
     FM280000 03007KT P6SM SKC=



000
FTUS43 KPAH 270525
TAFCGI
TAF
KCGI 270525Z 2706/2806 02006KT P6SM SKC
     FM271500 03010G18KT P6SM SKC
     FM280000 03007KT P6SM SKC=



000
FTUS43 KPAH 270525
TAFPAH
TAF
KPAH 270525Z 2706/2806 02006KT P6SM SKC
     FM271500 03010G18KT P6SM SKC
     FM280000 03007KT P6SM SKC=



000
FTUS43 KPAH 270525
TAFCGI
TAF
KCGI 270525Z 2706/2806 02006KT P6SM SKC
     FM271500 03010G18KT P6SM SKC
     FM280000 03007KT P6SM SKC=



000
FTUS43 KPAH 270525
TAFEVV
TAF
KEVV 270525Z 2706/2806 36006KT P6SM SKC
     FM271800 36010G18KT P6SM SKC
     FM280000 03007KT P6SM SKC=



000
FTUS43 KPAH 262328
TAFEVV
TAF
KEVV 262328Z 2700/2724 01007KT P6SM SKC
     FM271500 36010G18KT P6SM SKC=



000
FTUS43 KPAH 262328
TAFCGI
TAF
KCGI 262328Z 2700/2724 03005KT P6SM SKC
     FM271500 05012G20KT P6SM SKC=



000
FTUS43 KPAH 262328
TAFPAH
TAF
KPAH 262328Z 2700/2724 03005KT P6SM SKC
     FM271500 05012G20KT P6SM SKC=



000
FTUS43 KPAH 261721
TAFCGI
TAF
KCGI 261721Z 2618/2718 02008KT P6SM SKC
     FM270000 03003KT P6SM SKC=



000
FTUS43 KPAH 261721
TAFPAH
TAF
KPAH 261721Z 2618/2718 02008KT P6SM SKC
     FM262200 03008KT P6SM SCT035
     FM270000 03003KT P6SM SKC=



000
FTUS43 KPAH 261721
TAFEVV
TAF
KEVV 261721Z 2618/2718 02010KT P6SM SKC
     FM270000 01004KT P6SM SKC=



000
FTUS43 KPAH 261721
TAFEVV
TAF
KEVV 261721Z 2618/2718 02010KT P6SM SKC
     FM270000 01004KT P6SM SKC=



000
FTUS43 KPAH 261721
TAFPAH
TAF
KPAH 261721Z 2618/2718 02008KT P6SM SKC
     FM262200 03008KT P6SM SCT035
     FM270000 03003KT P6SM SKC=



000
FTUS43 KPAH 261721
TAFCGI
TAF
KCGI 261721Z 2618/2718 02008KT P6SM SKC
     FM270000 03003KT P6SM SKC=



000
FTUS43 KPAH 261720
TAFEVV
TAF
KEVV 261720Z 2618/2718 02010KT P6SM SCT050
     FM270000 01004KT P6SM SKC=



000
FTUS43 KPAH 261720
TAFCGI
TAF
KCGI 261720Z 2618/2718 02008KT P6SM BKN015
     FM262000 03008KT P6SM SCT035
     FM270000 03003KT P6SM SKC=



000
FTUS43 KPAH 261720
TAFPAH
TAF
KPAH 261720Z 2618/2718 02008KT P6SM BKN025
     FM262100 03008KT P6SM SCT035
     FM270000 03003KT P6SM SKC=



000
FTUS43 KPAH 261720
TAFEVV
TAF
KEVV 261720Z 2618/2718 02010KT P6SM SCT050
     FM270000 01004KT P6SM SKC=



000
FTUS43 KPAH 261720
TAFPAH
TAF
KPAH 261720Z 2618/2718 02008KT P6SM BKN025
     FM262100 03008KT P6SM SCT035
     FM270000 03003KT P6SM SKC=



000
FTUS43 KPAH 261720
TAFCGI
TAF
KCGI 261720Z 2618/2718 02008KT P6SM BKN015
     FM262000 03008KT P6SM SCT035
     FM270000 03003KT P6SM SKC=



000
FTUS43 KPAH 261513 AAA
TAFCGI
TAF AMD
KCGI 261513Z 2615/2712 36010KT P6SM OVC015
     FM261700 02008KT P6SM BKN025
     FM262000 03008KT P6SM SCT035
     FM270000 03003KT P6SM SKC=



000
FTUS43 KPAH 261247 AAA
TAFEVV
TAF AMD
KEVV 261247Z 2613/2712 02010KT P6SM SCT025 OVC060
     FM261400 02010KT P6SM SCT050
     FM270000 01004KT P6SM SKC=



000
FTUS43 KPAH 261247 AAA
TAFEVV
TAF AMD
KEVV 261247Z 2613/2712 02010KT P6SM SCT025 OVC060
     FM261400 02010KT P6SM SCT050
     FM270000 01004KT P6SM SKC=



000
FTUS43 KPAH 261246 AAA
TAFPAH
TAF AMD
KPAH 261246Z 2613/2712 01012KT P6SM OVC010
     FM261700 02008KT P6SM BKN025
     FM262200 03008KT P6SM SCT035
     FM270000 03003KT P6SM SKC=



000
FTUS43 KPAH 261246 AAA
TAFPAH
TAF AMD
KPAH 261246Z 2613/2712 01012KT P6SM OVC010
     FM261700 02008KT P6SM BKN025
     FM262200 03008KT P6SM SCT035
     FM270000 03003KT P6SM SKC=



000
FTUS43 KPAH 261120
TAFCGI
TAF
KCGI 261120Z 2612/2712 36010KT P6SM OVC009
     FM261600 02008KT P6SM BKN025
     FM262100 03008KT P6SM SCT035
     FM270000 03003KT P6SM SKC=



000
FTUS43 KPAH 261120
TAFEVV
TAF
KEVV 261120Z 2612/2712 02010KT P6SM OVC015
     FM261500 02010KT P6SM SCT025
     FM270000 01004KT P6SM SKC=



000
FTUS43 KPAH 261120
TAFPAH
TAF
KPAH 261120Z 2612/2712 01012KT P6SM OVC009
     FM261700 02008KT P6SM BKN025
     FM262200 03008KT P6SM SCT035
     FM270000 03003KT P6SM SKC=



000
FTUS43 KPAH 260747 AAA
TAFEVV
TAF AMD
KEVV 260747Z 2608/2706 03010KT P6SM OVC012
     FM261600 02009KT P6SM BKN025
     FM261900 01009KT P6SM SCT035
     FM270000 36004KT P6SM SKC=



000
FTUS43 KPAH 260747 AAA
TAFEVV
TAF AMD
KEVV 260747Z 2608/2706 03010KT P6SM OVC012
     FM261600 02009KT P6SM BKN025
     FM261900 01009KT P6SM SCT035
     FM270000 36004KT P6SM SKC=



000
FTUS43 KPAH 260746 AAA
TAFPAH
TAF AMD
KPAH 260746Z 2608/2706 36009KT P6SM BKN006 OVC012
     FM261700 02008KT P6SM BKN025
     FM262100 02008KT P6SM SCT035
     FM270000 02003KT P6SM SKC=



000
FTUS43 KPAH 260520
TAFCGI
TAF
KCGI 260520Z 2606/2706 36008KT P6SM SCT008 OVC011
     FM261700 02008KT P6SM BKN025
     FM262100 02008KT P6SM SCT035
     FM270000 03003KT P6SM SKC=



000
FTUS43 KPAH 260520
TAFPAH
TAF
KPAH 260520Z 2606/2706 36007KT P6SM SCT009 OVC012
     FM261700 02008KT P6SM BKN025
     FM262100 02008KT P6SM SCT035
     FM270000 02003KT P6SM SKC=



000
FTUS43 KPAH 260520
TAFCGI
TAF
KCGI 260520Z 2606/2706 36008KT P6SM SCT008 OVC011
     FM261700 02008KT P6SM BKN025
     FM262100 02008KT P6SM SCT035
     FM270000 03003KT P6SM SKC=



000
FTUS43 KPAH 260520
TAFEVV
TAF
KEVV 260520Z 2606/2706 02010KT 6SM BR OVC009
      TEMPO 2606/2609 3SM BR OVC006
     FM261300 02009KT P6SM OVC012
     FM261600 02009KT P6SM BKN025
     FM261900 01009KT P6SM SCT035
     FM270000 36004KT P6SM SKC=



000
FTUS43 KPAH 260520
TAFPAH
TAF
KPAH 260520Z 2606/2706 36007KT P6SM SCT009 OVC012
     FM261700 02008KT P6SM BKN025
     FM262100 02008KT P6SM SCT035
     FM270000 02003KT P6SM SKC=



000
FTUS43 KPAH 260520
TAFEVV
TAF
KEVV 260520Z 2606/2706 02010KT 6SM BR OVC009
      TEMPO 2606/2609 3SM BR OVC006
     FM261300 02009KT P6SM OVC012
     FM261600 02009KT P6SM BKN025
     FM261900 01009KT P6SM SCT035
     FM270000 36004KT P6SM SKC=



000
FTUS43 KPAH 260404 AAD
TAFPAH
TAF AMD
KPAH 260404Z 2604/2624 32005KT P6SM BKN015 OVC080
     FM260700 02008KT P6SM BKN010 OVC015
     FM261800 02008KT P6SM BKN018=



000
FTUS43 KPAH 260402 AAC
TAFEVV
TAF AMD
KEVV 260402Z 2604/2624 02010KT 4SM BR OVC007
     FM261200 02009KT P6SM OVC012
     FM261800 02008KT P6SM BKN018=



000
FTUS43 KPAH 260122 AAE
TAFPAH
TAF AMD
KPAH 260122Z 2601/2624 36008KT P6SM FEW010 BKN040
     FM260300 32007KT P6SM OVC008
     FM261800 02008KT P6SM BKN018=



000
FTUS43 KPAH 260117 AAB
TAFCGI
TAF AMD
KCGI 260117Z 2601/2624 34009KT P6SM FEW020 BKN090
     FM260300 33008KT P6SM OVC010
     FM261800 02008KT P6SM BKN025=



000
FTUS43 KPAH 260008 AAA
TAFCGI
TAF AMD
KCGI 260008Z 2600/2624 26013G20KT P6SM VCTS BKN040CB
     FM260200 33008KT P6SM OVC007
     FM261800 02008KT P6SM BKN025=



000
FTUS43 KPAH 260008 AAA
TAFCGI
TAF AMD
KCGI 260008Z 2600/2624 26013G20KT P6SM VCTS BKN040CB
     FM260200 33008KT P6SM OVC007
     FM261800 02008KT P6SM BKN025=



000
FTUS43 KPAH 260007 AAC
TAFPAH
TAF AMD
KPAH 260007Z 2600/2624 26014G22KT P6SM VCTS BKN040CB
     FM260200 32007KT P6SM OVC008
     FM261800 02008KT P6SM BKN018=



000
FTUS43 KPAH 260007 AAC
TAFPAH
TAF AMD
KPAH 260007Z 2600/2624 26014G22KT P6SM VCTS BKN040CB
     FM260200 32007KT P6SM OVC008
     FM261800 02008KT P6SM BKN018=



000
FTUS43 KPAH 260004 AAB
TAFEVV
TAF AMD
KEVV 260004Z 2600/2624 02010KT P6SM OVC007
     FM261800 02008KT P6SM BKN018=



000
FTUS43 KPAH 260004 AAB
TAFEVV
TAF AMD
KEVV 260004Z 2600/2624 02010KT P6SM OVC007
     FM261800 02008KT P6SM BKN018=



000
FTUS43 KPAH 252115 AAA
TAFEVV
TAF AMD
KEVV 252115Z 2521/2618 26010G20KT P6SM VCTS BKN035CB
      TEMPO 2522/2524 VRB20G40KT 1SM +TSRA BR OVC008CB
     FM260600 36010KT P6SM OVC007=



000
FTUS43 KPAH 252115 AAA
TAFEVV
TAF AMD
KEVV 252115Z 2521/2618 26010G20KT P6SM VCTS BKN035CB
      TEMPO 2522/2524 VRB20G40KT 1SM +TSRA BR OVC008CB
     FM260600 36010KT P6SM OVC007=



000
FTUS43 KPAH 251727
TAFCGI
TAF
KCGI 251727Z 2518/2618 20014G24KT P6SM SCT020 BKN050
     FM252100 26013G20KT P6SM VCTS BKN040CB
     FM260400 33008KT P6SM OVC007=



000
FTUS43 KPAH 251727
TAFPAH
TAF
KPAH 251727Z 2518/2618 20014G24KT P6SM SCT020 BKN050
     FM252200 26014G22KT P6SM VCTS BKN040CB
     FM260500 32007KT P6SM OVC008=



000
FTUS43 KPAH 251727
TAFEVV
TAF
KEVV 251727Z 2518/2618 23013KT P6SM VCTS SCT020 BKN040CB
     FM252100 26012G20KT 5SM -TSRA BKN035CB
      TEMPO 2600/2604 VRB20G40KT 1SM +TSRA BR OVC008CB
     FM260600 36010KT P6SM OVC007=



000
FTUS43 KPAH 251727
TAFCGI
TAF
KCGI 251727Z 2518/2618 20014G24KT P6SM SCT020 BKN050
     FM252100 26013G20KT P6SM VCTS BKN040CB
     FM260400 33008KT P6SM OVC007=



000
FTUS43 KPAH 251727
TAFEVV
TAF
KEVV 251727Z 2518/2618 23013KT P6SM VCTS SCT020 BKN040CB
     FM252100 26012G20KT 5SM -TSRA BKN035CB
      TEMPO 2600/2604 VRB20G40KT 1SM +TSRA BR OVC008CB
     FM260600 36010KT P6SM OVC007=



000
FTUS43 KPAH 251727
TAFPAH
TAF
KPAH 251727Z 2518/2618 20014G24KT P6SM SCT020 BKN050
     FM252200 26014G22KT P6SM VCTS BKN040CB
     FM260500 32007KT P6SM OVC008=



    US Dept of Commerce
    National Oceanic and Atmospheric Administration
    National Weather Service
    1325 East West Highway
    Silver Spring, MD 20910
    Page Author: NWS Internet Services Team
Disclaimer
Information Quality
Credits
Glossary
Privacy Policy
Freedom of Information Act (FOIA)
About Us
Career Opportunities